Time;durP1;ratioP1;P1;durP2;ratioP2;P2;SDS_P1;SDS_P2;PMS_P1;PMS_P2;Temp;Humidity;BMP_temperature;BMP_pressure;BME280_temperature;BME280_humidity;BME280_pressure;Samples;Min_cycle;Max_cycle;Signal;HPM_P1;HPM_P2
2024/04/17 00:01:17;;;;;;;3.80;2.20;;;281.90;2278.40;;;;;;5419897;26;20004;-77
2024/04/17 00:03:43;;;;;;;3.42;1.92;;;282.00;2278.40;;;;;;5419892;26;20018;-75
2024/04/17 00:06:09;;;;;;;3.55;2.20;;;281.80;2278.40;;;;;;5419514;26;19999;-74
2024/04/17 00:08:34;;;;;;;3.75;2.03;;;281.90;2278.40;;;;;;5419801;26;20000;-73
2024/04/17 00:11:00;;;;;;;3.38;1.85;;;281.90;2278.40;;;;;;5419488;26;20010;-75
2024/04/17 00:13:26;;;;;;;3.20;2.08;;;281.90;2278.40;;;;;;5419962;26;19996;-75
2024/04/17 00:15:52;;;;;;;3.05;1.70;;;281.90;2278.40;;;;;;5419495;26;19996;-74
2024/04/17 00:18:18;;;;;;;3.05;1.70;;;282.00;2278.40;;;;;;5419469;26;20010;-78
2024/04/17 00:20:44;;;;;;;4.50;2.25;;;281.90;2278.40;;;;;;5418830;26;20008;-78
2024/04/17 00:23:10;;;;;;;2.67;1.85;;;281.90;2278.40;;;;;;5419542;26;19995;-78
2024/04/17 00:25:36;;;;;;;4.93;2.13;;;281.90;2278.40;;;;;;5419212;26;20327;-78
2024/04/17 00:28:01;;;;;;;6.85;2.55;;;282.00;2278.40;;;;;;5418899;26;20101;-73
2024/04/17 00:30:27;;;;;;;3.55;1.83;;;282.00;2278.40;;;;;;5419222;26;20385;-74
2024/04/17 00:32:53;;;;;;;7.38;2.50;;;282.00;2278.40;;;;;;5419675;26;20004;-75
2024/04/17 00:35:19;;;;;;;7.70;2.53;;;282.10;2278.40;;;;;;5419089;26;19999;-74
2024/04/17 00:37:45;;;;;;;6.68;2.38;;;282.10;2278.40;;;;;;5419308;26;19999;-78
2024/04/17 00:40:11;;;;;;;5.82;2.38;;;282.00;2278.40;;;;;;5419258;26;20405;-75
2024/04/17 00:42:37;;;;;;;4.25;2.67;;;282.00;2278.40;;;;;;5419379;26;20332;-78
2024/04/17 00:45:03;;;;;;;8.25;2.28;;;282.00;2278.40;;;;;;5407537;26;20006;-75
2024/04/17 00:47:29;;;;;;;6.22;2.45;;;282.10;2278.40;;;;;;5403383;26;20009;-74
2024/04/17 00:49:55;;;;;;;4.97;2.40;;;282.10;2278.40;;;;;;5398688;26;20015;-73
2024/04/17 00:52:22;;;;;;;3.95;2.30;;;282.10;2278.40;;;;;;5407987;26;20031;-77
2024/04/17 00:54:49;;;;;;;8.13;2.15;;;281.70;2278.40;;;;;;5398631;26;20000;-75
2024/04/17 00:57:15;;;;;;;3.78;2.00;;;281.60;2278.40;;;;;;5392934;26;20010;-74
2024/04/17 00:59:45;;;;;;;4.90;2.20;;;281.60;2278.40;;;;;;5398245;26;19992;-75
2024/04/17 01:02:12;;;;;;;3.80;2.42;;;281.80;2278.40;;;;;;5408856;26;20006;-75
2024/04/17 01:04:39;;;;;;;4.10;1.88;;;256.90;2252.80;;;;;;5404397;26;20000;-79
2024/04/17 01:07:05;;;;;;;3.70;1.90;;;281.90;2278.40;;;;;;5409408;26;19992;-74
2024/04/17 01:09:30;;;;;;;4.47;2.00;;;281.80;2278.40;;;;;;5403230;26;20471;-74
2024/04/17 01:11:56;;;;;;;5.63;3.10;;;281.80;2278.40;;;;;;5395402;26;19992;-75
2024/04/17 01:14:22;;;;;;;5.40;1.90;;;281.90;2278.40;;;;;;5406396;26;19995;-77
2024/04/17 01:16:48;;;;;;;4.72;2.15;;;281.90;2278.40;;;;;;5394575;26;20014;-74
2024/04/17 01:19:14;;;;;;;4.97;2.42;;;281.70;2278.40;;;;;;5403281;26;19992;-74
2024/04/17 01:21:40;;;;;;;3.25;1.98;;;256.90;2252.80;;;;;;5386453;26;19997;-74
2024/04/17 01:24:06;;;;;;;4.85;2.33;;;256.90;2252.80;;;;;;5396262;26;20003;-74
2024/04/17 01:26:31;;;;;;;3.67;2.40;;;256.60;2252.80;;;;;;5403335;26;20008;-74
2024/04/17 01:28:57;;;;;;;3.80;1.83;;;256.80;2252.80;;;;;;5403311;26;19999;-75
2024/04/17 01:31:23;;;;;;;4.25;2.00;;;256.80;2252.80;;;;;;5394867;26;20451;-74
2024/04/17 01:33:49;;;;;;;4.68;2.85;;;256.90;2252.80;;;;;;5396871;26;20008;-74
2024/04/17 01:36:16;;;;;;;3.50;2.17;;;281.70;2278.40;;;;;;5414675;26;19996;-75
2024/04/17 01:38:41;;;;;;;4.88;1.92;;;281.90;2278.40;;;;;;5406594;26;20008;-73
2024/04/17 01:41:07;;;;;;;2.95;2.10;;;281.60;2278.40;;;;;;5401358;26;19992;-74
2024/04/17 01:43:33;;;;;;;3.03;2.05;;;256.90;2252.80;;;;;;5395853;26;20000;-75
2024/04/17 01:45:59;;;;;;;5.00;2.47;;;281.70;2278.40;;;;;;5391109;26;20000;-75
2024/04/17 01:48:25;;;;;;;5.22;2.00;;;256.90;2252.80;;;;;;5404431;26;20011;-75
2024/04/17 01:50:51;;;;;;;3.55;2.15;;;256.90;2252.80;;;;;;5397375;26;20004;-74
2024/04/17 01:53:17;;;;;;;3.95;2.00;;;256.80;2252.80;;;;;;5399303;26;20000;-74
2024/04/17 01:55:45;;;;;;;3.85;2.17;;;281.60;2278.40;;;;;;5387124;26;20069;-73
2024/04/17 01:58:12;;;;;;;2.90;2.00;;;256.50;2252.80;;;;;;5397640;26;20080;-77
2024/04/17 02:00:38;;;;;;;3.40;2.10;;;256.50;2252.80;;;;;;5392556;26;20000;-74
2024/04/17 02:03:04;;;;;;;3.85;2.35;;;256.50;2252.80;;;;;;5407173;26;20007;-75
2024/04/17 02:05:30;;;;;;;4.25;2.15;;;256.30;2252.80;;;;;;5402596;26;19999;-77
2024/04/17 02:07:56;;;;;;;4.75;2.00;;;256.60;2252.80;;;;;;5400882;26;20010;-73
2024/04/17 02:10:22;;;;;;;7.20;2.38;;;256.30;2252.80;;;;;;5390733;26;19996;-75
2024/04/17 02:12:48;;;;;;;5.40;1.90;;;256.30;2252.80;;;;;;5405433;26;20364;-77
2024/04/17 02:15:13;;;;;;;3.88;2.15;;;256.40;2252.80;;;;;;5399732;26;20012;-74
2024/04/17 02:17:39;;;;;;;4.03;2.17;;;256.30;2252.80;;;;;;5391289;26;19996;-74
2024/04/17 02:20:05;;;;;;;;;;;256.20;2252.80;;;;;;5400164;26;20485;-76
2024/04/17 02:22:31;;;;;;;2.83;1.70;;;256.30;2252.80;;;;;;5406648;26;19933;-75
2024/04/17 02:24:56;;;;;;;;;;;256.30;2252.80;;;;;;5401716;26;20610;-74
2024/04/17 02:27:22;;;;;;;5.00;1.80;;;256.40;2252.80;;;;;;5394112;26;19933;-76
2024/04/17 02:29:47;;;;;;;3.13;1.40;;;256.50;2252.80;;;;;;5408478;26;19996;-73
2024/04/17 02:32:14;;;;;;;;;;;256.40;2252.80;;;;;;5407439;26;20073;-77
2024/04/17 02:34:40;;;;;;;2.77;1.87;;;256.30;2252.80;;;;;;5404683;26;19925;-75
2024/04/17 02:37:05;;;;;;;;;;;256.40;2252.80;;;;;;5390674;26;20282;-76
2024/04/17 02:39:31;;;;;;;2.75;1.73;;;256.20;2252.80;;;;;;5401913;26;19926;-75
2024/04/17 02:41:56;;;;;;;3.08;1.92;;;256.30;2252.80;;;;;;5402430;26;20069;-76
2024/04/17 02:44:22;;;;;;;2.97;1.70;;;256.30;2252.80;;;;;;5389752;26;20057;-77
2024/04/17 02:46:48;;;;;;;2.97;1.70;;;256.30;2252.80;;;;;;5413820;26;19992;-75
2024/04/17 02:49:13;;;;;;;3.42;1.60;;;256.30;2252.80;;;;;;5401292;26;20082;-75
2024/04/17 02:51:39;;;;;;;2.22;1.50;;;256.10;2252.80;;;;;;5404515;26;20011;-77
2024/04/17 02:54:05;;;;;;;2.63;1.38;;;256.00;2252.80;;;;;;5398848;26;20019;-75
2024/04/17 02:56:30;;;;;;;;;;;231.20;2252.80;;;;;;5400534;26;19995;-75
2024/04/17 02:58:56;;;;;;;6.40;1.60;;;231.30;2252.80;;;;;;5415044;26;20367;-75
2024/04/17 03:01:22;;;;;;;;;;;231.30;2252.80;;;;;;5416211;26;20446;-75
2024/04/17 03:03:47;;;;;;;2.50;1.50;;;231.30;2252.80;;;;;;5407747;26;19926;-75
2024/04/17 03:06:13;;;;;;;2.55;1.45;;;231.10;2252.80;;;;;;5412618;26;20002;-74
2024/04/17 03:08:39;;;;;;;3.17;1.70;;;231.30;2252.80;;;;;;5401623;26;20031;-76
2024/04/17 03:11:04;;;;;;;2.72;1.63;;;231.20;2252.80;;;;;;5398828;26;20012;-74
2024/04/17 03:13:30;;;;;;;5.53;1.70;;;231.30;2252.80;;;;;;5405558;26;20003;-75
2024/04/17 03:16:01;;;;;;;3.25;1.60;;;256.00;2252.80;;;;;;5405263;26;20003;-76
2024/04/17 03:18:27;;;;;;;2.70;1.70;;;231.30;2252.80;;;;;;5394744;26;19996;-76
2024/04/17 03:20:57;;;;;;;4.00;1.67;;;231.20;2252.80;;;;;;5404341;26;20427;-75
2024/04/17 03:23:23;;;;;;;3.78;1.63;;;231.10;2252.80;;;;;;5399498;26;20000;-76
2024/04/17 03:26:01;;;;;;;3.70;1.70;;;230.90;2252.80;;;;;;5400995;26;20019;-74
2024/04/17 03:28:27;;;;;;;3.40;1.58;;;230.90;2252.80;;;;;;5398032;26;19996;-75
2024/04/17 03:30:55;;;;;;;5.38;2.00;;;230.80;2252.80;;;;;;5407697;26;19995;-75
2024/04/17 03:33:21;;;;;;;2.40;1.30;;;230.60;2252.80;;;;;;5409318;26;20003;-75
2024/04/17 03:35:57;;;;;;;2.47;1.35;;;230.50;2252.80;;;;;;5398627;26;20000;-72
2024/04/17 03:38:24;;;;;;;2.40;0.98;;;230.50;2252.80;;;;;;5407044;26;20004;-71
2024/04/17 03:40:50;;;;;;;2.88;1.42;;;230.50;2252.80;;;;;;5405064;26;20007;-71
2024/04/17 03:43:16;;;;;;;3.22;1.50;;;230.50;2252.80;;;;;;5394323;26;20440;-71
2024/04/17 03:45:42;;;;;;;4.57;1.20;;;230.60;2252.80;;;;;;5396097;26;19992;-71
2024/04/17 03:48:08;;;;;;;3.15;1.80;;;230.50;2252.80;;;;;;5400326;26;20016;-72
2024/04/17 03:50:33;;;;;;;4.05;1.50;;;230.60;2252.80;;;;;;5413500;26;20037;-72
2024/04/17 03:52:59;;;;;;;;;;;230.60;2252.80;;;;;;5389782;26;20427;-72
2024/04/17 03:55:25;;;;;;;3.35;0.98;;;230.50;2252.80;;;;;;5396654;26;20352;-75
2024/04/17 03:57:51;;;;;;;1.60;1.10;;;230.50;2252.80;;;;;;5400819;26;19996;-72
2024/04/17 04:00:17;;;;;;;2.35;1.27;;;230.40;2252.80;;;;;;5409174;26;20000;-72
2024/04/17 04:02:43;;;;;;;;;;;230.40;2252.80;;;;;;5409025;26;19998;-72
2024/04/17 04:05:09;;;;;;;3.08;1.00;;;230.40;2252.80;;;;;;5398869;26;19948;-73
2024/04/17 04:07:35;;;;;;;3.03;0.98;;;230.50;2252.80;;;;;;5394562;26;20011;-71
2024/04/17 04:10:01;;;;;;;1.90;1.08;;;230.50;2252.80;;;;;;5390948;26;20073;-72
2024/04/17 04:12:27;;;;;;;4.57;1.30;;;230.50;2252.80;;;;;;5398288;26;20447;-72
2024/04/17 04:14:53;;;;;;;4.07;1.73;;;230.60;2252.80;;;;;;5396381;26;20011;-72
2024/04/17 04:17:19;;;;;;;3.20;1.50;;;230.50;2252.80;;;;;;5388509;26;19996;-73
2024/04/17 04:19:45;;;;;;;;;;;230.60;2252.80;;;;;;5396927;26;20008;-72
2024/04/17 04:22:11;;;;;;;5.03;1.45;;;230.60;2252.80;;;;;;5395487;26;19927;-71
2024/04/17 04:24:37;;;;;;;5.68;1.70;;;230.60;2252.80;;;;;;5400474;26;19996;-75
2024/04/17 04:27:02;;;;;;;;;;;230.70;2252.80;;;;;;5399756;26;19997;-72
2024/04/17 04:29:28;;;;;;;4.47;1.20;;;230.60;2252.80;;;;;;5398284;26;19925;-74
2024/04/17 04:31:54;;;;;;;3.55;1.35;;;230.60;2252.80;;;;;;5390580;26;20436;-74
2024/04/17 04:34:20;;;;;;;;;;;230.60;2252.80;;;;;;5402656;26;20000;-72
2024/04/17 04:36:45;;;;;;;2.60;1.30;;;230.60;2252.80;;;;;;5384503;26;20350;-73
2024/04/17 04:39:11;;;;;;;3.28;1.30;;;230.70;2252.80;;;;;;5401814;26;20007;-73
2024/04/17 04:41:37;;;;;;;4.13;1.98;;;230.80;2252.80;;;;;;5398213;26;20036;-73
2024/04/17 04:44:03;;;;;;;4.70;1.67;;;230.80;2252.80;;;;;;5396851;26;19999;-72
2024/04/17 04:46:29;;;;;;;5.90;2.60;;;230.80;2252.80;;;;;;5388544;26;20011;-73
2024/04/17 04:48:55;;;;;;;8.00;2.78;;;230.90;2252.80;;;;;;5402834;26;19997;-72
2024/04/17 04:51:21;;;;;;;6.97;2.22;;;230.90;2252.80;;;;;;5387831;26;20032;-74
2024/04/17 04:53:47;;;;;;;7.20;2.72;;;230.90;2252.80;;;;;;5388628;26;20011;-73
2024/04/17 04:56:14;;;;;;;2.75;1.77;;;231.00;2252.80;;;;;;5400535;26;20000;-73
2024/04/17 04:58:42;;;;;;;4.38;1.88;;;230.90;2252.80;;;;;;5390159;26;19993;-73
2024/04/17 05:01:08;;;;;;;3.35;2.03;;;230.90;2252.80;;;;;;5387654;26;20012;-73
2024/04/17 05:03:34;;;;;;;5.65;2.72;;;230.70;2252.80;;;;;;5397833;26;20077;-72
2024/04/17 05:06:00;;;;;;;4.72;1.88;;;230.60;2252.80;;;;;;5399754;26;20451;-73
2024/04/17 05:08:26;;;;;;;3.60;1.45;;;230.70;2252.80;;;;;;5392110;26;20072;-72
2024/04/17 05:10:51;;;;;;;;;;;230.80;2252.80;;;;;;5396197;26;20007;-74
2024/04/17 05:13:17;;;;;;;4.10;2.13;;;230.80;2252.80;;;;;;5398982;26;19937;-72
2024/04/17 05:15:43;;;;;;;2.95;1.42;;;230.70;2252.80;;;;;;5403943;26;20060;-71
2024/04/17 05:18:09;;;;;;;;;;;230.70;2252.80;;;;;;5403215;26;20007;-72
2024/04/17 05:20:34;;;;;;;4.15;1.50;;;230.90;2252.80;;;;;;5399259;26;19932;-72
2024/04/17 05:23:00;;;;;;;;;;;230.90;2252.80;;;;;;5394419;26;20042;-72
2024/04/17 05:25:26;;;;;;;3.05;1.55;;;230.90;2252.80;;;;;;5398675;26;19958;-73
2024/04/17 05:27:52;;;;;;;;;;;230.90;2252.80;;;;;;5399554;26;19991;-75
2024/04/17 05:30:18;;;;;;;5.47;2.33;;;230.90;2252.80;;;;;;5402244;26;19925;-72
2024/04/17 05:32:46;;;;;;;6.03;2.47;;;230.90;2252.80;;;;;;5394138;26;19995;-75
2024/04/17 05:35:12;;;;;;;4.05;1.65;;;231.20;2252.80;;;;;;5391006;26;20068;-72
2024/04/17 05:37:38;;;;;;;3.97;2.20;;;230.90;2252.80;;;;;;5384697;26;20413;-73
2024/04/17 05:40:05;;;;;;;4.00;2.28;;;231.00;2252.80;;;;;;5392158;26;20010;-75
2024/04/17 05:42:31;;;;;;;4.00;1.92;;;231.00;2252.80;;;;;;5394266;26;20424;-73
2024/04/17 05:44:57;;;;;;;3.40;1.70;;;231.00;2252.80;;;;;;5388055;26;20014;-75
2024/04/17 05:47:23;;;;;;;3.50;1.33;;;230.90;2252.80;;;;;;5397703;26;20007;-72
2024/04/17 05:49:49;;;;;;;2.85;1.25;;;230.70;2252.80;;;;;;5398778;26;20336;-73
2024/04/17 05:52:14;;;;;;;2.97;1.63;;;230.60;2252.80;;;;;;5391365;26;20435;-73
2024/04/17 05:54:40;;;;;;;;;;;230.60;2252.80;;;;;;5404472;26;20461;-74
2024/04/17 05:57:06;;;;;;;2.65;1.33;;;230.70;2252.80;;;;;;5397955;26;19924;-73
2024/04/17 05:59:32;;;;;;;3.42;1.75;;;230.60;2252.80;;;;;;5394480;26;20010;-72
2024/04/17 06:01:58;;;;;;;;;;;230.80;2252.80;;;;;;5399034;26;20010;-71
2024/04/17 06:04:24;;;;;;;4.70;1.45;;;230.70;2252.80;;;;;;5394924;26;19953;-74
2024/04/17 06:06:50;;;;;;;8.05;2.22;;;230.70;2252.80;;;;;;5384387;26;20004;-73
2024/04/17 06:09:16;;;;;;;4.72;1.98;;;230.80;2252.80;;;;;;5406242;26;20003;-74
2024/04/17 06:11:42;;;;;;;5.45;2.20;;;230.90;2252.80;;;;;;5401397;26;20011;-74
2024/04/17 06:14:07;;;;;;;3.05;1.80;;;230.80;2252.80;;;;;;5393729;26;20010;-72
2024/04/17 06:16:33;;;;;;;2.33;1.65;;;231.00;2252.80;;;;;;5395121;26;20068;-72
2024/04/17 06:18:59;;;;;;;;;;;231.10;2252.80;;;;;;5410301;26;20003;-72
2024/04/17 06:21:27;;;;;;;3.70;1.90;;;231.20;2252.80;;;;;;5387626;26;19932;-71
2024/04/17 06:23:53;;;;;;;3.28;1.50;;;231.20;2252.80;;;;;;5385640;26;20003;-73
2024/04/17 06:26:19;;;;;;;4.50;1.90;;;231.20;2252.80;;;;;;5399524;26;20467;-71
2024/04/17 06:28:45;;;;;;;3.03;1.88;;;231.30;2252.80;;;;;;5398154;26;19996;-71
2024/04/17 06:31:10;;;;;;;;;;;231.30;2252.80;;;;;;5390922;26;20000;-71
2024/04/17 06:33:36;;;;;;;3.25;1.65;;;231.10;2252.80;;;;;;5400205;26;19925;-74
2024/04/17 06:36:02;;;;;;;5.72;2.10;;;231.20;2252.80;;;;;;5405860;26;19999;-72
2024/04/17 06:38:28;;;;;;;7.45;2.45;;;231.20;2252.80;;;;;;5394416;26;20077;-73
2024/04/17 06:40:55;;;;;;;4.13;1.77;;;231.20;2252.80;;;;;;5393056;26;20014;-75
2024/04/17 06:43:22;;;;;;;5.53;1.70;;;231.30;2252.80;;;;;;5400392;26;20000;-74
2024/04/17 06:45:48;;;;;;;5.22;1.40;;;256.90;2252.80;;;;;;5391600;26;20043;-73
2024/04/17 06:48:14;;;;;;;4.85;1.33;;;256.00;2252.80;;;;;;5401282;26;20061;-74
2024/04/17 06:50:40;;;;;;;5.07;1.83;;;231.20;2252.80;;;;;;5398979;26;20431;-76
2024/04/17 06:53:07;;;;;;;4.00;1.52;;;256.00;2252.80;;;;;;5393632;26;19996;-72
2024/04/17 06:55:33;;;;;;;6.20;1.35;;;256.00;2252.80;;;;;;5406766;26;20011;-73
2024/04/17 06:57:59;;;;;;;4.32;1.20;;;256.40;2252.80;;;;;;5391563;26;20004;-73
2024/04/17 07:00:32;;;;;;;3.75;1.10;;;256.10;2252.80;;;;;;5381408;26;20378;-71
2024/04/17 07:02:58;;;;;;;4.22;1.52;;;256.00;2252.80;;;;;;5388470;26;19996;-71
2024/04/17 07:05:25;;;;;;;1.95;1.33;;;256.20;2252.80;;;;;;5395206;26;20019;-72
2024/04/17 07:07:51;;;;;;;2.65;1.55;;;256.10;2252.80;;;;;;5388673;26;20000;-73
2024/04/17 07:10:17;;;;;;;3.03;1.63;;;256.00;2252.80;;;;;;5394604;26;20413;-73
2024/04/17 07:12:42;;;;;;;2.42;1.33;;;256.00;2252.80;;;;;;5386927;26;19996;-75
2024/04/17 07:15:09;;;;;;;4.72;1.60;;;256.00;2252.80;;;;;;5404844;26;20320;-73
2024/04/17 07:17:35;;;;;;;4.45;1.80;;;256.20;2252.80;;;;;;5396979;26;20320;-75
2024/04/17 07:20:01;;;;;;;4.00;2.10;;;256.20;2252.80;;;;;;5389438;26;19996;-76
2024/04/17 07:22:27;;;;;;;4.68;1.70;;;256.10;2252.80;;;;;;5400269;26;20008;-74
2024/04/17 07:24:52;;;;;;;;;;;256.20;2252.80;;;;;;5385962;26;20032;-72
2024/04/17 07:27:18;;;;;;;5.03;2.10;;;256.30;2252.80;;;;;;5388531;26;20289;-72
2024/04/17 07:29:44;;;;;;;4.78;1.65;;;256.40;2252.80;;;;;;5396476;26;20010;-72
2024/04/17 07:32:10;;;;;;;;;;;256.40;2252.80;;;;;;5395663;26;20073;-71
2024/04/17 07:34:35;;;;;;;3.03;1.60;;;256.60;2252.80;;;;;;5401520;26;19962;-74
2024/04/17 07:37:02;;;;;;;;;;;256.30;2252.80;;;;;;5404197;26;19996;-73
2024/04/17 07:39:28;;;;;;;2.88;1.70;;;256.40;2252.80;;;;;;5390909;26;19926;-72
2024/04/17 07:41:55;;;;;;;4.10;1.90;;;256.60;2252.80;;;;;;5405908;26;20350;-72
2024/04/17 07:44:21;;;;;;;5.50;1.73;;;256.70;2252.80;;;;;;5391698;26;20073;-73
2024/04/17 07:46:48;;;;;;;2.97;1.83;;;256.70;2252.80;;;;;;5393037;26;20459;-70
2024/04/17 07:49:15;;;;;;;3.25;2.00;;;256.80;2252.80;;;;;;5395445;26;20000;-73
2024/04/17 07:51:41;;;;;;;2.60;1.67;;;256.90;2252.80;;;;;;5398407;26;20479;-74
2024/04/17 07:54:07;;;;;;;2.90;1.83;;;281.70;2278.40;;;;;;5394039;26;20129;-73
2024/04/17 07:56:32;;;;;;;4.07;2.10;;;281.80;2278.40;;;;;;5390296;26;20015;-72
2024/04/17 07:58:58;;;;;;;4.65;2.38;;;281.70;2278.40;;;;;;5400738;26;20025;-72
2024/04/17 08:01:24;;;;;;;;;;;281.90;2278.40;;;;;;5393594;26;20004;-72
2024/04/17 08:03:50;;;;;;;8.38;2.28;;;281.80;2278.40;;;;;;5398308;26;19933;-75
2024/04/17 08:06:20;;;;;;;4.85;2.45;;;281.70;2278.40;;;;;;5400801;26;20016;-72
2024/04/17 08:08:47;;;;;;;5.15;3.08;;;281.90;2278.40;;;;;;5411878;26;20028;-74
2024/04/17 08:11:14;;;;;;;5.43;2.80;;;281.90;2278.40;;;;;;5407814;26;19999;-72
2024/04/17 08:13:40;;;;;;;3.30;1.98;;;281.80;2278.40;;;;;;5397494;26;20000;-73
2024/04/17 08:16:05;;;;;;;7.75;2.10;;;281.70;2278.40;;;;;;5398655;26;20015;-74
2024/04/17 08:18:31;;;;;;;4.20;2.40;;;281.90;2278.40;;;;;;5392174;26;20004;-74
2024/04/17 08:20:58;;;;;;;3.33;2.17;;;281.80;2278.40;;;;;;5406397;26;19996;-73
2024/04/17 08:23:24;;;;;;;6.18;2.92;;;282.10;2278.40;;;;;;5397111;26;20463;-74
2024/04/17 08:25:50;;;;;;;4.45;2.65;;;281.90;2278.40;;;;;;5393945;26;20070;-74
2024/04/17 08:28:19;;;;;;;4.07;2.50;;;282.20;2278.40;;;;;;5395565;26;20036;-73
2024/04/17 08:30:45;;;;;;;7.85;2.75;;;282.30;2278.40;;;;;;5397828;26;20003;-72
2024/04/17 08:33:11;;;;;;;6.40;3.20;;;282.20;2278.40;;;;;;5388827;26;20004;-72
2024/04/17 08:35:37;;;;;;;4.28;2.55;;;282.00;2278.40;;;;;;5404950;26;20000;-73
2024/04/17 08:38:04;;;;;;;4.40;2.78;;;282.20;2278.40;;;;;;5388671;26;20011;-73
2024/04/17 08:40:30;;;;;;;6.63;2.50;;;282.30;2278.40;;;;;;5390700;26;20004;-73
2024/04/17 08:43:04;;;;;;;5.38;2.88;;;282.50;2278.40;;;;;;5407866;26;20442;-73
2024/04/17 08:45:31;;;;;;;3.78;2.15;;;307.30;2304.00;;;;;;5401811;26;20076;-74
2024/04/17 08:48:00;;;;;;;5.97;2.47;;;307.30;2304.00;;;;;;5397475;26;20036;-72
2024/04/17 08:50:30;;;;;;;5.38;2.65;;;307.60;2304.00;;;;;;5397485;26;20390;-74
2024/04/17 08:53:00;;;;;;;5.32;1.90;;;307.40;2304.00;;;;;;5394196;26;20015;-75
2024/04/17 08:55:27;;;;;;;4.80;1.77;;;307.20;2304.00;;;;;;5402986;26;19995;-74
2024/04/17 08:57:54;;;;;;;3.90;2.28;;;308.00;2304.00;;;;;;5396776;26;20000;-73
2024/04/17 09:00:26;;;;;;;4.53;2.03;;;332.80;2329.60;;;;;;5392523;26;20348;-74
2024/04/17 09:02:59;;;;;;;5.03;2.00;;;308.10;2304.00;;;;;;5409208;26;20051;-73
2024/04/17 09:05:27;;;;;;;6.32;2.30;;;332.80;2329.60;;;;;;5407418;26;20076;-72
2024/04/17 09:07:53;;;;;;;4.32;1.60;;;308.10;2304.00;;;;;;5410521;26;20106;-74
2024/04/17 09:10:20;;;;;;;5.30;1.77;;;308.00;2304.00;;;;;;5405718;26;20004;-74
2024/04/17 09:12:46;;;;;;;3.50;1.58;;;308.00;2304.00;;;;;;5398583;26;20313;-75
2024/04/17 09:15:13;;;;;;;3.20;1.77;;;332.80;2329.60;;;;;;5399120;26;20455;-74
2024/04/17 09:17:39;;;;;;;4.13;2.10;;;333.00;2329.60;;;;;;5406809;26;20018;-73
2024/04/17 09:20:05;;;;;;;5.78;1.48;;;332.80;2329.60;;;;;;5387087;26;19996;-72
2024/04/17 09:22:32;;;;;;;4.07;1.67;;;332.80;2329.60;;;;;;5391091;26;20020;-74
2024/04/17 09:24:58;;;;;;;2.92;1.70;;;308.10;2304.00;;;;;;5391714;26;20446;-74
2024/04/17 09:27:23;;;;;;;4.93;1.88;;;308.10;2304.00;;;;;;5400841;26;19996;-73
2024/04/17 09:29:49;;;;;;;4.53;1.70;;;332.80;2329.60;;;;;;5414883;26;19992;-73
2024/04/17 09:32:15;;;;;;;4.95;1.95;;;333.00;2329.60;;;;;;5398620;26;20335;-73
2024/04/17 09:34:42;;;;;;;4.72;2.22;;;333.20;2329.60;;;;;;5410590;26;20000;-73
2024/04/17 09:37:14;;;;;;;3.47;1.95;;;332.80;2329.60;;;;;;5407168;26;20069;-73
2024/04/17 09:39:40;;;;;;;3.25;1.70;;;332.90;2329.60;;;;;;5396472;26;19991;-73
2024/04/17 09:42:10;;;;;;;2.85;1.60;;;332.90;2329.60;;;;;;5402649;26;20010;-74
2024/04/17 09:44:40;;;;;;;3.15;1.70;;;333.00;2329.60;;;;;;5405823;26;19995;-74
2024/04/17 09:47:09;;;;;;;2.92;1.85;;;333.00;2329.60;;;;;;5396412;26;20006;-73
2024/04/17 09:49:38;;;;;;;4.45;2.17;;;333.30;2329.60;;;;;;5403997;26;19992;-73
2024/04/17 09:52:05;;;;;;;3.63;1.80;;;333.70;2329.60;;;;;;5390544;26;20394;-72
2024/04/17 09:54:31;;;;;;;2.67;1.60;;;358.40;2329.60;;;;;;5393653;26;20463;-73
2024/04/17 09:56:58;;;;;;;2.30;1.48;;;333.70;2329.60;;;;;;5406490;26;19996;-73
2024/04/17 09:59:25;;;;;;;5.07;2.10;;;333.60;2329.60;;;;;;5393952;26;19995;-74
2024/04/17 10:01:52;;;;;;;7.18;3.88;;;333.50;2329.60;;;;;;5398354;26;19993;-74
2024/04/17 10:04:18;;;;;;;4.20;2.30;;;333.40;2329.60;;;;;;5393823;26;19996;-76
2024/04/17 10:06:44;;;;;;;4.95;3.10;;;333.20;2329.60;;;;;;5394301;26;20028;-74
2024/04/17 10:09:14;;;;;;;9.05;4.03;;;333.30;2329.60;;;;;;5409517;26;20006;-74
2024/04/17 10:11:41;;;;;;;4.82;2.70;;;333.30;2329.60;;;;;;5397424;26;20007;-74
2024/04/17 10:14:12;;;;;;;4.07;2.30;;;333.20;2329.60;;;;;;5386200;26;20000;-74
2024/04/17 10:16:38;;;;;;;8.57;3.33;;;333.40;2329.60;;;;;;5399322;26;20028;-74
2024/04/17 10:19:04;;;;;;;13.25;4.70;;;333.40;2329.60;;;;;;5394153;26;20068;-74
2024/04/17 10:21:34;;;;;;;6.55;2.55;;;333.40;2329.60;;;;;;5402350;26;20069;-75
2024/04/17 10:24:07;;;;;;;7.57;3.00;;;333.20;2329.60;;;;;;5398791;26;19999;-75
2024/04/17 10:26:44;;;;;;;6.85;2.95;;;333.20;2329.60;;;;;;5388607;26;20012;-75
2024/04/17 10:29:26;;;;;;;7.90;4.22;;;333.10;2329.60;;;;;;5401838;26;20035;-74
2024/04/17 10:32:05;;;;;;;9.93;3.63;;;333.10;2329.60;;;;;;5391231;26;20000;-75
2024/04/17 10:34:52;;;;;;;6.13;2.90;;;333.10;2329.60;;;;;;5393046;26;20073;-74
2024/04/17 10:37:18;;;;;;;;;;;333.10;2329.60;;;;;;5402561;26;20018;-74
2024/04/17 10:39:46;;;;;;;5.68;2.88;;;333.10;2329.60;;;;;;5394045;26;19953;-73
2024/04/17 10:42:19;;;;;;;6.90;2.80;;;333.20;2329.60;;;;;;5393303;26;20004;-74
2024/04/17 10:44:52;;;;;;;6.30;2.75;;;333.20;2329.60;;;;;;5402770;26;20447;-75
2024/04/17 10:47:24;;;;;;;6.43;3.15;;;333.20;2329.60;;;;;;5390702;26;20446;-75
2024/04/17 10:50:00;;;;;;;3.60;2.17;;;333.10;2329.60;;;;;;5394376;26;20004;-73
2024/04/17 10:52:29;;;;;;;5.20;2.80;;;333.00;2329.60;;;;;;5392439;26;20435;-75
2024/04/17 10:54:59;;;;;;;3.15;2.25;;;332.90;2329.60;;;;;;5405803;26;20008;-73
2024/04/17 10:57:28;;;;;;;4.28;2.40;;;332.80;2329.60;;;;;;5395553;26;20413;-76
2024/04/17 10:59:57;;;;;;;4.45;2.40;;;308.00;2304.00;;;;;;5387577;26;20000;-74
2024/04/17 11:02:23;;;;;;;5.47;2.45;;;307.80;2304.00;;;;;;5385007;26;20008;-74
2024/04/17 11:04:50;;;;;;;5.03;2.33;;;308.00;2304.00;;;;;;5399403;26;20073;-74
2024/04/17 11:07:16;;;;;;;9.18;2.85;;;308.10;2304.00;;;;;;5397566;26;20045;-75
2024/04/17 11:09:43;;;;;;;4.70;2.97;;;308.10;2304.00;;;;;;5396382;26;20340;-74
2024/04/17 11:12:17;;;;;;;4.55;2.83;;;332.90;2329.60;;;;;;5393768;26;20524;-74
2024/04/17 11:14:43;;;;;;;4.05;1.90;;;333.10;2329.60;;;;;;5392847;26;20022;-74
2024/04/17 11:17:09;;;;;;;3.75;2.00;;;333.30;2329.60;;;;;;5399686;26;20023;-75
2024/04/17 11:19:36;;;;;;;4.13;2.05;;;333.30;2329.60;;;;;;5395144;26;19991;-74
2024/04/17 11:22:12;;;;;;;6.78;2.08;;;333.40;2329.60;;;;;;5386602;26;20015;-76
2024/04/17 11:24:43;;;;;;;5.60;2.70;;;333.40;2329.60;;;;;;5390476;26;20432;-75
2024/04/17 11:27:09;;;;;;;4.57;2.83;;;333.30;2329.60;;;;;;5392452;26;20011;-75
2024/04/17 11:29:37;;;;;;;8.23;4.00;;;333.30;2329.60;;;;;;5394484;26;19992;-75
2024/04/17 11:32:04;;;;;;;10.00;4.75;;;333.20;2329.60;;;;;;5393540;26;20008;-75
2024/04/17 11:34:31;;;;;;;14.88;6.63;;;333.20;2329.60;;;;;;5391488;26;20011;-74
2024/04/17 11:37:05;;;;;;;19.17;9.15;;;333.30;2329.60;;;;;;5401707;26;20000;-75
2024/04/17 11:39:32;;;;;;;28.73;11.57;;;333.40;2329.60;;;;;;5393746;26;20432;-74
2024/04/17 11:42:02;;;;;;;21.27;10.98;;;333.40;2329.60;;;;;;5413292;26;20015;-74
2024/04/17 11:44:34;;;;;;;7.47;2.92;;;333.40;2329.60;;;;;;5389026;26;20019;-74
2024/04/17 11:47:00;;;;;;;5.72;2.47;;;333.50;2329.60;;;;;;5396450;26;20010;-74
2024/04/17 11:49:27;;;;;;;6.30;2.50;;;333.50;2329.60;;;;;;5402389;26;20000;-75
2024/04/17 11:51:53;;;;;;;5.07;2.10;;;333.40;2329.60;;;;;;5390508;26;20004;-74
2024/04/17 11:54:21;;;;;;;3.22;1.95;;;333.40;2329.60;;;;;;5403680;26;20034;-73
2024/04/17 11:56:46;;;;;;;7.38;3.30;;;333.30;2329.60;;;;;;5406755;26;20028;-74
2024/04/17 11:59:12;;;;;;;4.80;2.70;;;333.00;2329.60;;;;;;5399019;26;20000;-73
2024/04/17 12:01:38;;;;;;;9.38;3.72;;;332.90;2329.60;;;;;;5388386;26;20367;-75
2024/04/17 12:04:04;;;;;;;9.10;2.50;;;332.90;2329.60;;;;;;5390364;26;20055;-74
2024/04/17 12:06:30;;;;;;;5.65;2.38;;;332.90;2329.60;;;;;;5390724;26;19999;-73
2024/04/17 12:08:56;;;;;;;4.50;2.50;;;333.10;2329.60;;;;;;5397585;26;20051;-73
2024/04/17 12:11:22;;;;;;;5.13;2.05;;;333.30;2329.60;;;;;;5395920;26;20003;-73
2024/04/17 12:13:48;;;;;;;3.60;2.15;;;333.30;2329.60;;;;;;5411237;26;20018;-73
2024/04/17 12:16:14;;;;;;;4.70;1.95;;;333.20;2329.60;;;;;;5401569;26;20000;-73
2024/04/17 12:18:39;;;;;;;4.40;2.08;;;333.30;2329.60;;;;;;5394688;26;20000;-73
2024/04/17 12:21:05;;;;;;;7.60;2.63;;;333.40;2329.60;;;;;;5399131;26;20011;-74